North Providence, Rhode Island
Current Conditions -  °F | °C
As of 9:55 PM on Thursday 27 Nov 2014 (Local Time) from KSFZ Reporting Station
Overcast Overcast  
Wind Chill: 23°   Ceiling: 6000
Heat Index: 30°   Visibility: 10mi
Dew Point: 23°   Wind: 7mph
Humidity: 75%   Direction: 330°NNW
Pressure: 29.97"   Gusts: NA
Location:  41.86°N, 71.48°W
Report Text: KSFZ 280255Z 33006KT 10SM SCT007 SCT016 OVC060 M01/M05 A2997 RMK AO1 54000
Loading
Personal Weather Stations






























Interactive Weather Map New forecast layout! Learn more

10-Day Weather Forecast

Advertisements
Track Severe Weather on mobile